sensor_id;sensor_type;location;lat;lon;timestamp;temperature;humidity
46055;DHT22;31788;6.954;-71.872;2023-02-03T00:00:12;27.90;87.20
46055;DHT22;31788;6.954;-71.872;2023-02-03T00:02:38;27.80;87.00
46055;DHT22;31788;6.954;-71.872;2023-02-03T00:05:05;27.80;87.20
46055;DHT22;31788;6.954;-71.872;2023-02-03T00:07:31;27.80;87.10
46055;DHT22;31788;6.954;-71.872;2023-02-03T00:09:59;27.70;87.10
46055;DHT22;31788;6.954;-71.872;2023-02-03T00:12:25;27.70;86.90
46055;DHT22;31788;6.954;-71.872;2023-02-03T00:14:52;27.70;87.10
46055;DHT22;31788;6.954;-71.872;2023-02-03T00:17:19;27.60;87.00
46055;DHT22;31788;6.954;-71.872;2023-02-03T00:19:45;27.60;86.80
46055;DHT22;31788;6.954;-71.872;2023-02-03T00:22:11;27.50;86.60
46055;DHT22;31788;6.954;-71.872;2023-02-03T00:24:38;27.60;86.60
46055;DHT22;31788;6.954;-71.872;2023-02-03T00:27:04;27.50;86.50
46055;DHT22;31788;6.954;-71.872;2023-02-03T00:29:30;27.50;86.40
46055;DHT22;31788;6.954;-71.872;2023-02-03T00:31:56;27.40;86.60
46055;DHT22;31788;6.954;-71.872;2023-02-03T00:34:26;27.40;86.60
46055;DHT22;31788;6.954;-71.872;2023-02-03T00:36:52;27.40;86.50
46055;DHT22;31788;6.954;-71.872;2023-02-03T00:39:19;27.40;86.50
46055;DHT22;31788;6.954;-71.872;2023-02-03T00:41:47;27.40;86.40
46055;DHT22;31788;6.954;-71.872;2023-02-03T00:44:13;27.30;86.10
46055;DHT22;31788;6.954;-71.872;2023-02-03T00:46:40;27.30;85.90
46055;DHT22;31788;6.954;-71.872;2023-02-03T00:49:06;27.30;85.80
46055;DHT22;31788;6.954;-71.872;2023-02-03T00:51:32;27.30;85.90
46055;DHT22;31788;6.954;-71.872;2023-02-03T00:53:59;27.30;85.90
46055;DHT22;31788;6.954;-71.872;2023-02-03T00:56:27;27.20;85.80
46055;DHT22;31788;6.954;-71.872;2023-02-03T00:58:53;27.20;85.80
46055;DHT22;31788;6.954;-71.872;2023-02-03T01:01:19;27.20;85.80
46055;DHT22;31788;6.954;-71.872;2023-02-03T01:03:46;27.10;85.60
46055;DHT22;31788;6.954;-71.872;2023-02-03T01:06:17;27.10;85.50
46055;DHT22;31788;6.954;-71.872;2023-02-03T01:08:43;27.10;85.80
46055;DHT22;31788;6.954;-71.872;2023-02-03T01:11:14;27.10;85.50
46055;DHT22;31788;6.954;-71.872;2023-02-03T01:13:42;27.10;85.50
46055;DHT22;31788;6.954;-71.872;2023-02-03T01:16:08;27.10;85.70
46055;DHT22;31788;6.954;-71.872;2023-02-03T01:18:35;27.00;85.40
46055;DHT22;31788;6.954;-71.872;2023-02-03T01:21:20;27.00;85.30
46055;DHT22;31788;6.954;-71.872;2023-02-03T01:23:49;27.00;85.30
46055;DHT22;31788;6.954;-71.872;2023-02-03T01:26:17;26.90;85.30
46055;DHT22;31788;6.954;-71.872;2023-02-03T01:28:50;26.90;85.30
46055;DHT22;31788;6.954;-71.872;2023-02-03T01:31:19;26.90;85.30
46055;DHT22;31788;6.954;-71.872;2023-02-03T01:33:46;26.80;85.20
46055;DHT22;31788;6.954;-71.872;2023-02-03T01:36:46;26.80;85.20
46055;DHT22;31788;6.954;-71.872;2023-02-03T01:39:12;26.80;85.50
46055;DHT22;31788;6.954;-71.872;2023-02-03T01:41:40;26.80;85.50
46055;DHT22;31788;6.954;-71.872;2023-02-03T01:46:50;26.70;85.50
46055;DHT22;31788;6.954;-71.872;2023-02-03T01:51:43;26.60;86.00
46055;DHT22;31788;6.954;-71.872;2023-02-03T01:54:31;26.60;86.40
46055;DHT22;31788;6.954;-71.872;2023-02-03T01:57:03;26.50;86.60
46055;DHT22;31788;6.954;-71.872;2023-02-03T01:59:31;26.50;87.00
46055;DHT22;31788;6.954;-71.872;2023-02-03T02:01:59;26.40;87.00
46055;DHT22;31788;6.954;-71.872;2023-02-03T02:04:27;26.40;86.60
46055;DHT22;31788;6.954;-71.872;2023-02-03T02:06:55;26.40;86.70
46055;DHT22;31788;6.954;-71.872;2023-02-03T02:09:24;26.40;86.40
46055;DHT22;31788;6.954;-71.872;2023-02-03T02:11:51;26.40;85.90
46055;DHT22;31788;6.954;-71.872;2023-02-03T02:14:20;26.40;85.80
46055;DHT22;31788;6.954;-71.872;2023-02-03T02:16:49;26.40;85.40
46055;DHT22;31788;6.954;-71.872;2023-02-03T02:19:35;26.40;85.20
46055;DHT22;31788;6.954;-71.872;2023-02-03T02:22:20;26.40;85.10
46055;DHT22;31788;6.954;-71.872;2023-02-03T02:24:57;26.40;85.20
46055;DHT22;31788;6.954;-71.872;2023-02-03T02:27:42;26.40;85.00
46055;DHT22;31788;6.954;-71.872;2023-02-03T02:32:46;26.40;84.60
46055;DHT22;31788;6.954;-71.872;2023-02-03T02:38:00;26.40;84.30
46055;DHT22;31788;6.954;-71.872;2023-02-03T02:40:41;26.30;84.40
46055;DHT22;31788;6.954;-71.872;2023-02-03T02:48:09;26.30;84.00
46055;DHT22;31788;6.954;-71.872;2023-02-03T02:50:39;26.30;84.10
46055;DHT22;31788;6.954;-71.872;2023-02-03T02:53:07;26.20;83.80
46055;DHT22;31788;6.954;-71.872;2023-02-03T02:55:33;26.20;83.90
46055;DHT22;31788;6.954;-71.872;2023-02-03T02:58:04;26.20;83.70
46055;DHT22;31788;6.954;-71.872;2023-02-03T03:00:33;26.20;83.60
46055;DHT22;31788;6.954;-71.872;2023-02-03T03:03:09;26.20;83.40
46055;DHT22;31788;6.954;-71.872;2023-02-03T03:05:36;26.20;83.50
46055;DHT22;31788;6.954;-71.872;2023-02-03T03:08:03;26.20;83.40
46055;DHT22;31788;6.954;-71.872;2023-02-03T03:10:30;26.20;83.30
46055;DHT22;31788;6.954;-71.872;2023-02-03T03:12:59;26.20;83.30
46055;DHT22;31788;6.954;-71.872;2023-02-03T03:15:27;26.20;83.30
46055;DHT22;31788;6.954;-71.872;2023-02-03T03:18:10;26.10;82.90
46055;DHT22;31788;6.954;-71.872;2023-02-03T03:20:36;26.10;82.70
46055;DHT22;31788;6.954;-71.872;2023-02-03T03:23:05;26.00;82.70
46055;DHT22;31788;6.954;-71.872;2023-02-03T03:25:37;26.10;82.40
46055;DHT22;31788;6.954;-71.872;2023-02-03T03:28:07;26.10;82.30
46055;DHT22;31788;6.954;-71.872;2023-02-03T03:30:35;26.00;82.10
46055;DHT22;31788;6.954;-71.872;2023-02-03T03:33:02;26.00;82.10
46055;DHT22;31788;6.954;-71.872;2023-02-03T03:35:36;26.00;82.00
46055;DHT22;31788;6.954;-71.872;2023-02-03T03:38:06;26.00;81.70
46055;DHT22;31788;6.954;-71.872;2023-02-03T03:40:33;26.00;81.60
46055;DHT22;31788;6.954;-71.872;2023-02-03T03:43:05;26.00;81.60
46055;DHT22;31788;6.954;-71.872;2023-02-03T03:45:49;25.90;81.20
46055;DHT22;31788;6.954;-71.872;2023-02-03T03:48:18;26.00;81.40
46055;DHT22;31788;6.954;-71.872;2023-02-03T03:50:52;25.90;80.90
46055;DHT22;31788;6.954;-71.872;2023-02-03T03:53:20;25.90;81.00
46055;DHT22;31788;6.954;-71.872;2023-02-03T03:55:49;25.90;80.80
46055;DHT22;31788;6.954;-71.872;2023-02-03T03:58:17;25.90;80.70
46055;DHT22;31788;6.954;-71.872;2023-02-03T04:00:44;25.90;80.90
46055;DHT22;31788;6.954;-71.872;2023-02-03T04:03:13;25.90;80.90
46055;DHT22;31788;6.954;-71.872;2023-02-03T04:05:40;25.90;80.90
46055;DHT22;31788;6.954;-71.872;2023-02-03T04:08:07;25.90;80.90
46055;DHT22;31788;6.954;-71.872;2023-02-03T04:10:34;25.80;80.70
46055;DHT22;31788;6.954;-71.872;2023-02-03T04:13:00;25.80;80.70
46055;DHT22;31788;6.954;-71.872;2023-02-03T04:15:28;25.80;81.10
46055;DHT22;31788;6.954;-71.872;2023-02-03T04:17:54;25.80;80.90
46055;DHT22;31788;6.954;-71.872;2023-02-03T04:20:22;25.80;80.90
46055;DHT22;31788;6.954;-71.872;2023-02-03T04:22:48;25.80;80.80
46055;DHT22;31788;6.954;-71.872;2023-02-03T04:25:15;25.80;80.70
46055;DHT22;31788;6.954;-71.872;2023-02-03T04:27:42;25.80;80.80
46055;DHT22;31788;6.954;-71.872;2023-02-03T04:30:08;25.80;80.80
46055;DHT22;31788;6.954;-71.872;2023-02-03T04:32:35;25.70;80.60
46055;DHT22;31788;6.954;-71.872;2023-02-03T04:35:01;25.70;80.50
46055;DHT22;31788;6.954;-71.872;2023-02-03T04:37:29;25.70;80.40
46055;DHT22;31788;6.954;-71.872;2023-02-03T04:39:55;25.70;80.60
46055;DHT22;31788;6.954;-71.872;2023-02-03T04:42:21;25.70;79.70
46055;DHT22;31788;6.954;-71.872;2023-02-03T04:44:48;25.70;79.50
46055;DHT22;31788;6.954;-71.872;2023-02-03T04:47:14;25.70;79.40
46055;DHT22;31788;6.954;-71.872;2023-02-03T04:49:41;25.70;79.40
46055;DHT22;31788;6.954;-71.872;2023-02-03T04:52:07;25.70;79.10
46055;DHT22;31788;6.954;-71.872;2023-02-03T04:54:33;25.70;79.00
46055;DHT22;31788;6.954;-71.872;2023-02-03T04:56:59;25.70;78.40
46055;DHT22;31788;6.954;-71.872;2023-02-03T04:59:26;25.70;78.30
46055;DHT22;31788;6.954;-71.872;2023-02-03T05:01:53;25.70;78.20
46055;DHT22;31788;6.954;-71.872;2023-02-03T05:04:20;25.70;78.20
46055;DHT22;31788;6.954;-71.872;2023-02-03T05:06:46;25.70;78.40
46055;DHT22;31788;6.954;-71.872;2023-02-03T05:09:12;25.70;78.00
46055;DHT22;31788;6.954;-71.872;2023-02-03T05:11:38;25.70;77.70
46055;DHT22;31788;6.954;-71.872;2023-02-03T05:14:04;25.70;77.40
46055;DHT22;31788;6.954;-71.872;2023-02-03T05:16:31;25.70;77.50
46055;DHT22;31788;6.954;-71.872;2023-02-03T05:18:57;25.70;77.60
46055;DHT22;31788;6.954;-71.872;2023-02-03T05:21:23;25.60;77.40
46055;DHT22;31788;6.954;-71.872;2023-02-03T05:23:49;25.60;77.50
46055;DHT22;31788;6.954;-71.872;2023-02-03T05:26:15;25.60;77.60
46055;DHT22;31788;6.954;-71.872;2023-02-03T05:28:42;25.60;77.40
46055;DHT22;31788;6.954;-71.872;2023-02-03T05:31:08;25.60;77.20
46055;DHT22;31788;6.954;-71.872;2023-02-03T05:33:34;25.60;77.50
46055;DHT22;31788;6.954;-71.872;2023-02-03T05:36:00;25.60;78.00
46055;DHT22;31788;6.954;-71.872;2023-02-03T05:38:26;25.60;76.80
46055;DHT22;31788;6.954;-71.872;2023-02-03T05:40:52;25.50;76.80
46055;DHT22;31788;6.954;-71.872;2023-02-03T05:43:36;25.60;76.60
46055;DHT22;31788;6.954;-71.872;2023-02-03T05:46:03;25.50;76.60
46055;DHT22;31788;6.954;-71.872;2023-02-03T05:48:30;25.50;76.30
46055;DHT22;31788;6.954;-71.872;2023-02-03T05:50:56;25.60;76.30
46055;DHT22;31788;6.954;-71.872;2023-02-03T05:53:23;25.50;76.00
46055;DHT22;31788;6.954;-71.872;2023-02-03T05:55:49;25.50;75.80
46055;DHT22;31788;6.954;-71.872;2023-02-03T05:58:15;25.50;76.00
46055;DHT22;31788;6.954;-71.872;2023-02-03T06:00:41;25.50;75.80
46055;DHT22;31788;6.954;-71.872;2023-02-03T06:03:07;25.50;75.70
46055;DHT22;31788;6.954;-71.872;2023-02-03T06:05:34;25.50;75.60
46055;DHT22;31788;6.954;-71.872;2023-02-03T06:08:02;25.50;75.40
46055;DHT22;31788;6.954;-71.872;2023-02-03T06:10:28;25.40;75.50
46055;DHT22;31788;6.954;-71.872;2023-02-03T06:12:54;25.50;75.00
46055;DHT22;31788;6.954;-71.872;2023-02-03T06:15:20;25.40;74.90
46055;DHT22;31788;6.954;-71.872;2023-02-03T06:17:47;25.50;75.10
46055;DHT22;31788;6.954;-71.872;2023-02-03T06:20:14;25.50;75.10
46055;DHT22;31788;6.954;-71.872;2023-02-03T06:22:41;25.40;75.00
46055;DHT22;31788;6.954;-71.872;2023-02-03T06:25:07;25.50;75.00
46055;DHT22;31788;6.954;-71.872;2023-02-03T06:27:34;25.40;75.00
46055;DHT22;31788;6.954;-71.872;2023-02-03T06:30:00;25.50;75.10
46055;DHT22;31788;6.954;-71.872;2023-02-03T06:32:26;25.40;75.20
46055;DHT22;31788;6.954;-71.872;2023-02-03T06:34:52;25.40;75.50
46055;DHT22;31788;6.954;-71.872;2023-02-03T06:37:19;25.40;75.20
46055;DHT22;31788;6.954;-71.872;2023-02-03T06:39:45;25.30;75.00
46055;DHT22;31788;6.954;-71.872;2023-02-03T06:42:11;25.30;75.30
46055;DHT22;31788;6.954;-71.872;2023-02-03T06:44:37;25.40;75.20
46055;DHT22;31788;6.954;-71.872;2023-02-03T06:47:03;25.30;74.80
46055;DHT22;31788;6.954;-71.872;2023-02-03T06:49:29;25.40;75.00
46055;DHT22;31788;6.954;-71.872;2023-02-03T06:51:56;25.30;74.90
46055;DHT22;31788;6.954;-71.872;2023-02-03T06:54:22;25.30;74.80
46055;DHT22;31788;6.954;-71.872;2023-02-03T06:56:48;25.30;75.00
46055;DHT22;31788;6.954;-71.872;2023-02-03T06:59:14;25.30;75.10
46055;DHT22;31788;6.954;-71.872;2023-02-03T07:01:40;25.30;75.20
46055;DHT22;31788;6.954;-71.872;2023-02-03T07:04:06;25.30;75.50
46055;DHT22;31788;6.954;-71.872;2023-02-03T07:06:32;25.30;75.20
46055;DHT22;31788;6.954;-71.872;2023-02-03T07:08:59;25.30;75.40
46055;DHT22;31788;6.954;-71.872;2023-02-03T07:11:26;25.30;75.60
46055;DHT22;31788;6.954;-71.872;2023-02-03T07:13:52;25.30;75.50
46055;DHT22;31788;6.954;-71.872;2023-02-03T07:16:18;25.30;75.70
46055;DHT22;31788;6.954;-71.872;2023-02-03T07:18:45;25.30;75.50
46055;DHT22;31788;6.954;-71.872;2023-02-03T07:21:11;25.30;75.60
46055;DHT22;31788;6.954;-71.872;2023-02-03T07:23:38;25.30;75.60
46055;DHT22;31788;6.954;-71.872;2023-02-03T07:26:05;25.40;75.90
46055;DHT22;31788;6.954;-71.872;2023-02-03T07:28:34;25.30;75.50
46055;DHT22;31788;6.954;-71.872;2023-02-03T07:31:00;25.30;75.20
46055;DHT22;31788;6.954;-71.872;2023-02-03T07:33:29;25.30;75.40
46055;DHT22;31788;6.954;-71.872;2023-02-03T07:35:56;25.30;75.60
46055;DHT22;31788;6.954;-71.872;2023-02-03T07:38:23;25.30;75.20
46055;DHT22;31788;6.954;-71.872;2023-02-03T07:40:49;25.30;75.00
46055;DHT22;31788;6.954;-71.872;2023-02-03T07:43:15;25.30;75.40
46055;DHT22;31788;6.954;-71.872;2023-02-03T07:45:42;25.30;75.40
46055;DHT22;31788;6.954;-71.872;2023-02-03T07:48:08;25.20;75.30
46055;DHT22;31788;6.954;-71.872;2023-02-03T07:50:34;25.30;75.30
46055;DHT22;31788;6.954;-71.872;2023-02-03T07:53:00;25.20;75.20
46055;DHT22;31788;6.954;-71.872;2023-02-03T07:55:26;25.20;75.50
46055;DHT22;31788;6.954;-71.872;2023-02-03T07:57:53;25.20;75.40
46055;DHT22;31788;6.954;-71.872;2023-02-03T08:00:20;25.10;75.70
46055;DHT22;31788;6.954;-71.872;2023-02-03T08:02:46;25.10;75.50
46055;DHT22;31788;6.954;-71.872;2023-02-03T08:05:12;25.10;76.00
46055;DHT22;31788;6.954;-71.872;2023-02-03T08:07:39;25.10;75.90
46055;DHT22;31788;6.954;-71.872;2023-02-03T08:10:06;25.10;75.80
46055;DHT22;31788;6.954;-71.872;2023-02-03T08:12:32;25.00;76.00
46055;DHT22;31788;6.954;-71.872;2023-02-03T08:14:59;25.00;75.90
46055;DHT22;31788;6.954;-71.872;2023-02-03T08:17:25;25.00;76.00
46055;DHT22;31788;6.954;-71.872;2023-02-03T08:19:51;24.90;76.30
46055;DHT22;31788;6.954;-71.872;2023-02-03T08:22:17;24.90;76.30
46055;DHT22;31788;6.954;-71.872;2023-02-03T08:24:44;24.90;76.50
46055;DHT22;31788;6.954;-71.872;2023-02-03T08:27:11;24.90;76.10
46055;DHT22;31788;6.954;-71.872;2023-02-03T08:29:38;24.90;76.30
46055;DHT22;31788;6.954;-71.872;2023-02-03T08:32:04;24.90;76.60
46055;DHT22;31788;6.954;-71.872;2023-02-03T08:34:30;24.90;76.50
46055;DHT22;31788;6.954;-71.872;2023-02-03T08:36:58;24.80;76.30
46055;DHT22;31788;6.954;-71.872;2023-02-03T08:39:24;24.90;75.70
46055;DHT22;31788;6.954;-71.872;2023-02-03T08:41:51;24.80;76.30
46055;DHT22;31788;6.954;-71.872;2023-02-03T08:44:17;24.80;76.10
46055;DHT22;31788;6.954;-71.872;2023-02-03T08:46:45;24.80;75.30
46055;DHT22;31788;6.954;-71.872;2023-02-03T08:49:14;24.80;76.20
46055;DHT22;31788;6.954;-71.872;2023-02-03T08:51:40;24.80;76.10
46055;DHT22;31788;6.954;-71.872;2023-02-03T08:54:06;24.70;75.60
46055;DHT22;31788;6.954;-71.872;2023-02-03T08:56:32;24.70;75.70
46055;DHT22;31788;6.954;-71.872;2023-02-03T08:58:58;24.70;75.40
46055;DHT22;31788;6.954;-71.872;2023-02-03T09:01:25;24.70;75.70
46055;DHT22;31788;6.954;-71.872;2023-02-03T09:03:51;24.70;75.80
46055;DHT22;31788;6.954;-71.872;2023-02-03T09:06:17;24.70;75.70
46055;DHT22;31788;6.954;-71.872;2023-02-03T09:08:44;24.70;75.50
46055;DHT22;31788;6.954;-71.872;2023-02-03T09:11:11;24.70;75.60
46055;DHT22;31788;6.954;-71.872;2023-02-03T09:13:38;24.70;74.90
46055;DHT22;31788;6.954;-71.872;2023-02-03T09:16:05;24.70;74.60
46055;DHT22;31788;6.954;-71.872;2023-02-03T09:18:32;24.70;74.90
46055;DHT22;31788;6.954;-71.872;2023-02-03T09:21:01;24.70;74.70
46055;DHT22;31788;6.954;-71.872;2023-02-03T09:23:28;24.70;74.80
46055;DHT22;31788;6.954;-71.872;2023-02-03T09:25:54;24.70;74.90
46055;DHT22;31788;6.954;-71.872;2023-02-03T09:28:20;24.70;74.70
46055;DHT22;31788;6.954;-71.872;2023-02-03T09:30:46;24.70;75.10
46055;DHT22;31788;6.954;-71.872;2023-02-03T09:33:13;24.70;75.00
46055;DHT22;31788;6.954;-71.872;2023-02-03T09:35:39;24.70;75.20
46055;DHT22;31788;6.954;-71.872;2023-02-03T09:38:05;24.60;75.30
46055;DHT22;31788;6.954;-71.872;2023-02-03T09:40:32;24.50;75.80
46055;DHT22;31788;6.954;-71.872;2023-02-03T09:45:34;24.40;77.30
46055;DHT22;31788;6.954;-71.872;2023-02-03T09:48:05;24.30;78.30
46055;DHT22;31788;6.954;-71.872;2023-02-03T09:50:34;24.30;77.70
46055;DHT22;31788;6.954;-71.872;2023-02-03T09:53:03;24.10;78.00
46055;DHT22;31788;6.954;-71.872;2023-02-03T09:58:01;24.00;78.90
46055;DHT22;31788;6.954;-71.872;2023-02-03T10:00:39;23.90;79.10
46055;DHT22;31788;6.954;-71.872;2023-02-03T10:05:45;23.80;79.30
46055;DHT22;31788;6.954;-71.872;2023-02-03T10:08:22;23.70;80.30
46055;DHT22;31788;6.954;-71.872;2023-02-03T10:17:10;23.50;81.00
46055;DHT22;31788;6.954;-71.872;2023-02-03T10:19:02;23.40;81.10
46055;DHT22;31788;6.954;-71.872;2023-02-03T10:21:41;23.40;81.60
46055;DHT22;31788;6.954;-71.872;2023-02-03T10:24:10;23.40;81.70
46055;DHT22;31788;6.954;-71.872;2023-02-03T10:26:38;23.40;82.60
46055;DHT22;31788;6.954;-71.872;2023-02-03T10:29:25;23.40;83.10
46055;DHT22;31788;6.954;-71.872;2023-02-03T10:31:53;23.30;82.80
46055;DHT22;31788;6.954;-71.872;2023-02-03T10:34:19;23.30;81.90
46055;DHT22;31788;6.954;-71.872;2023-02-03T10:36:54;23.30;82.40
46055;DHT22;31788;6.954;-71.872;2023-02-03T10:41:53;23.30;82.50
46055;DHT22;31788;6.954;-71.872;2023-02-03T10:44:20;23.30;81.70
46055;DHT22;31788;6.954;-71.872;2023-02-03T10:46:48;23.30;82.00
46055;DHT22;31788;6.954;-71.872;2023-02-03T10:49:14;23.30;83.30
46055;DHT22;31788;6.954;-71.872;2023-02-03T10:51:46;23.30;82.60
46055;DHT22;31788;6.954;-71.872;2023-02-03T10:54:27;23.30;81.90
46055;DHT22;31788;6.954;-71.872;2023-02-03T10:59:29;23.40;80.00
46055;DHT22;31788;6.954;-71.872;2023-02-03T11:01:55;23.50;80.80
46055;DHT22;31788;6.954;-71.872;2023-02-03T11:04:29;23.50;80.30
46055;DHT22;31788;6.954;-71.872;2023-02-03T11:06:57;23.60;80.60
46055;DHT22;31788;6.954;-71.872;2023-02-03T11:09:59;23.60;80.40
46055;DHT22;31788;6.954;-71.872;2023-02-03T11:12:18;23.60;79.90
46055;DHT22;31788;6.954;-71.872;2023-02-03T11:14:45;23.70;79.70
46055;DHT22;31788;6.954;-71.872;2023-02-03T11:19:45;23.80;79.00
46055;DHT22;31788;6.954;-71.872;2023-02-03T11:22:13;23.70;79.30
46055;DHT22;31788;6.954;-71.872;2023-02-03T11:24:47;23.80;79.40
46055;DHT22;31788;6.954;-71.872;2023-02-03T11:27:14;23.80;79.80
46055;DHT22;31788;6.954;-71.872;2023-02-03T11:29:51;23.80;80.10
46055;DHT22;31788;6.954;-71.872;2023-02-03T11:32:22;23.80;80.20
46055;DHT22;31788;6.954;-71.872;2023-02-03T11:37:25;23.80;81.20
46055;DHT22;31788;6.954;-71.872;2023-02-03T11:42:36;23.90;80.90
46055;DHT22;31788;6.954;-71.872;2023-02-03T11:45:24;24.00;79.70
46055;DHT22;31788;6.954;-71.872;2023-02-03T11:47:52;24.00;79.30
46055;DHT22;31788;6.954;-71.872;2023-02-03T11:50:28;24.10;79.10
46055;DHT22;31788;6.954;-71.872;2023-02-03T11:53:09;24.10;80.00
46055;DHT22;31788;6.954;-71.872;2023-02-03T12:01:11;24.40;80.10
46055;DHT22;31788;6.954;-71.872;2023-02-03T12:26:25;24.80;80.00
46055;DHT22;31788;6.954;-71.872;2023-02-03T12:36:36;25.00;81.50
46055;DHT22;31788;6.954;-71.872;2023-02-03T12:39:18;25.10;81.30
46055;DHT22;31788;6.954;-71.872;2023-02-03T12:41:57;25.10;81.30
46055;DHT22;31788;6.954;-71.872;2023-02-03T12:44:30;25.10;81.40
46055;DHT22;31788;6.954;-71.872;2023-02-03T12:47:06;25.20;81.00
46055;DHT22;31788;6.954;-71.872;2023-02-03T12:49:42;25.20;81.20
46055;DHT22;31788;6.954;-71.872;2023-02-03T12:52:11;25.20;81.20
46055;DHT22;31788;6.954;-71.872;2023-02-03T12:57:29;25.30;81.70
46055;DHT22;31788;6.954;-71.872;2023-02-03T13:02:29;25.30;81.70
46055;DHT22;31788;6.954;-71.872;2023-02-03T13:05:03;25.30;81.90
46055;DHT22;31788;6.954;-71.872;2023-02-03T13:07:42;25.40;81.00
46055;DHT22;31788;6.954;-71.872;2023-02-03T13:10:56;25.40;80.90
46055;DHT22;31788;6.954;-71.872;2023-02-03T13:13:02;25.40;80.80
46055;DHT22;31788;6.954;-71.872;2023-02-03T13:20:42;25.50;80.40
46055;DHT22;31788;6.954;-71.872;2023-02-03T13:23:11;25.50;80.00
46055;DHT22;31788;6.954;-71.872;2023-02-03T13:36:05;25.60;80.30
46055;DHT22;31788;6.954;-71.872;2023-02-03T13:43:32;25.70;78.70
46055;DHT22;31788;6.954;-71.872;2023-02-03T13:45:59;25.70;78.50
46055;DHT22;31788;6.954;-71.872;2023-02-03T13:48:26;25.80;78.50
46055;DHT22;31788;6.954;-71.872;2023-02-03T13:51:06;25.80;78.00
46055;DHT22;31788;6.954;-71.872;2023-02-03T13:53:36;25.90;78.40
46055;DHT22;31788;6.954;-71.872;2023-02-03T13:56:04;25.90;78.20
46055;DHT22;31788;6.954;-71.872;2023-02-03T13:58:32;25.90;78.40
46055;DHT22;31788;6.954;-71.872;2023-02-03T14:03:43;26.00;78.10
46055;DHT22;31788;6.954;-71.872;2023-02-03T14:06:53;26.10;78.30
46055;DHT22;31788;6.954;-71.872;2023-02-03T14:08:58;26.10;78.50
46055;DHT22;31788;6.954;-71.872;2023-02-03T14:16:33;26.20;78.50
46055;DHT22;31788;6.954;-71.872;2023-02-03T14:18:59;26.30;78.70
46055;DHT22;31788;6.954;-71.872;2023-02-03T14:21:26;26.30;79.10
46055;DHT22;31788;6.954;-71.872;2023-02-03T14:24:02;26.30;80.30
46055;DHT22;31788;6.954;-71.872;2023-02-03T14:26:36;26.40;79.70
46055;DHT22;31788;6.954;-71.872;2023-02-03T14:29:03;26.40;79.70
46055;DHT22;31788;6.954;-71.872;2023-02-03T14:31:30;26.40;79.50
46055;DHT22;31788;6.954;-71.872;2023-02-03T14:34:02;26.40;79.80
46055;DHT22;31788;6.954;-71.872;2023-02-03T14:39:44;26.50;80.20
46055;DHT22;31788;6.954;-71.872;2023-02-03T14:59:54;26.70;80.80
46055;DHT22;31788;6.954;-71.872;2023-02-03T15:02:23;26.70;80.80
46055;DHT22;31788;6.954;-71.872;2023-02-03T15:04:51;26.80;80.90
46055;DHT22;31788;6.954;-71.872;2023-02-03T15:07:39;26.80;80.70
46055;DHT22;31788;6.954;-71.872;2023-02-03T15:10:11;26.80;80.40
46055;DHT22;31788;6.954;-71.872;2023-02-03T15:12:38;26.80;80.60
46055;DHT22;31788;6.954;-71.872;2023-02-03T15:15:16;26.90;80.50
46055;DHT22;31788;6.954;-71.872;2023-02-03T15:17:44;26.90;80.80
46055;DHT22;31788;6.954;-71.872;2023-02-03T15:22:49;26.90;81.70
46055;DHT22;31788;6.954;-71.872;2023-02-03T15:25:16;27.00;80.70
46055;DHT22;31788;6.954;-71.872;2023-02-03T15:27:43;27.00;80.60
46055;DHT22;31788;6.954;-71.872;2023-02-03T15:30:25;27.00;81.10
46055;DHT22;31788;6.954;-71.872;2023-02-03T15:35:18;27.00;81.00
46055;DHT22;31788;6.954;-71.872;2023-02-03T15:37:47;27.00;81.00
46055;DHT22;31788;6.954;-71.872;2023-02-03T15:45:30;27.10;81.00
46055;DHT22;31788;6.954;-71.872;2023-02-03T15:48:03;27.10;81.20
46055;DHT22;31788;6.954;-71.872;2023-02-03T15:52:58;27.20;80.80
46055;DHT22;31788;6.954;-71.872;2023-02-03T15:55:30;27.30;80.60
46055;DHT22;31788;6.954;-71.872;2023-02-03T15:57:57;27.30;80.70
46055;DHT22;31788;6.954;-71.872;2023-02-03T16:00:27;27.30;80.90
46055;DHT22;31788;6.954;-71.872;2023-02-03T16:02:54;27.30;80.70
46055;DHT22;31788;6.954;-71.872;2023-02-03T16:05:29;27.30;80.70
46055;DHT22;31788;6.954;-71.872;2023-02-03T16:07:56;27.40;80.70
46055;DHT22;31788;6.954;-71.872;2023-02-03T16:10:29;27.30;80.50
46055;DHT22;31788;6.954;-71.872;2023-02-03T16:16:02;27.40;80.80
46055;DHT22;31788;6.954;-71.872;2023-02-03T16:18:32;27.40;80.70
46055;DHT22;31788;6.954;-71.872;2023-02-03T16:21:01;27.50;80.90
46055;DHT22;31788;6.954;-71.872;2023-02-03T16:23:27;27.50;81.00
46055;DHT22;31788;6.954;-71.872;2023-02-03T16:26:04;27.50;80.70
46055;DHT22;31788;6.954;-71.872;2023-02-03T16:28:31;27.60;80.00
46055;DHT22;31788;6.954;-71.872;2023-02-03T16:31:16;27.60;80.00
46055;DHT22;31788;6.954;-71.872;2023-02-03T16:34:01;27.60;80.20
46055;DHT22;31788;6.954;-71.872;2023-02-03T16:36:51;27.60;80.30
46055;DHT22;31788;6.954;-71.872;2023-02-03T16:39:36;27.60;80.60
46055;DHT22;31788;6.954;-71.872;2023-02-03T16:42:20;27.60;80.70
46055;DHT22;31788;6.954;-71.872;2023-02-03T16:45:15;27.60;80.90
46055;DHT22;31788;6.954;-71.872;2023-02-03T16:48:01;27.60;80.60
46055;DHT22;31788;6.954;-71.872;2023-02-03T16:50:45;27.60;80.60
46055;DHT22;31788;6.954;-71.872;2023-02-03T16:53:19;27.60;80.40
46055;DHT22;31788;6.954;-71.872;2023-02-03T16:55:46;27.60;80.20
46055;DHT22;31788;6.954;-71.872;2023-02-03T16:58:13;27.60;80.00
46055;DHT22;31788;6.954;-71.872;2023-02-03T17:00:39;27.70;79.50
46055;DHT22;31788;6.954;-71.872;2023-02-03T17:03:06;27.60;79.70
46055;DHT22;31788;6.954;-71.872;2023-02-03T17:05:36;27.70;79.80
46055;DHT22;31788;6.954;-71.872;2023-02-03T17:08:03;27.60;79.20
46055;DHT22;31788;6.954;-71.872;2023-02-03T17:10:29;27.70;78.80
46055;DHT22;31788;6.954;-71.872;2023-02-03T17:12:55;27.70;79.30
46055;DHT22;31788;6.954;-71.872;2023-02-03T17:15:21;27.80;79.10
46055;DHT22;31788;6.954;-71.872;2023-02-03T17:17:47;27.80;78.90
46055;DHT22;31788;6.954;-71.872;2023-02-03T17:20:14;27.80;79.00
46055;DHT22;31788;6.954;-71.872;2023-02-03T17:22:40;27.80;78.90
46055;DHT22;31788;6.954;-71.872;2023-02-03T17:25:06;27.80;77.50
46055;DHT22;31788;6.954;-71.872;2023-02-03T17:27:32;27.90;77.60
46055;DHT22;31788;6.954;-71.872;2023-02-03T17:29:59;27.90;77.30
46055;DHT22;31788;6.954;-71.872;2023-02-03T17:32:25;27.90;77.40
46055;DHT22;31788;6.954;-71.872;2023-02-03T17:34:51;28.00;77.50
46055;DHT22;31788;6.954;-71.872;2023-02-03T17:37:17;27.90;77.50
46055;DHT22;31788;6.954;-71.872;2023-02-03T17:39:43;27.90;77.40
46055;DHT22;31788;6.954;-71.872;2023-02-03T17:42:10;28.00;77.40
46055;DHT22;31788;6.954;-71.872;2023-02-03T17:44:36;28.00;77.00
46055;DHT22;31788;6.954;-71.872;2023-02-03T17:47:02;28.00;77.30
46055;DHT22;31788;6.954;-71.872;2023-02-03T17:49:29;28.00;76.60
46055;DHT22;31788;6.954;-71.872;2023-02-03T17:51:55;28.10;77.50
46055;DHT22;31788;6.954;-71.872;2023-02-03T17:54:21;28.00;76.90